sensor_id;sensor_type;location;lat;lon;timestamp;P1;durP1;ratioP1;P2;durP2;ratioP2
59308;SDS011;48433;53.016;-2.260;2023-02-28T00:01:21;16.33;;;9.75;;
59308;SDS011;48433;53.016;-2.260;2023-02-28T00:03:49;15.70;;;9.35;;
59308;SDS011;48433;53.016;-2.260;2023-02-28T00:06:17;15.13;;;9.68;;
59308;SDS011;48433;53.016;-2.260;2023-02-28T00:08:45;15.07;;;9.60;;
59308;SDS011;48433;53.016;-2.260;2023-02-28T00:11:14;13.35;;;9.02;;
59308;SDS011;48433;53.016;-2.260;2023-02-28T00:13:43;13.57;;;9.35;;
59308;SDS011;48433;53.016;-2.260;2023-02-28T00:16:16;13.27;;;8.40;;
59308;SDS011;48433;53.016;-2.260;2023-02-28T00:18:46;15.02;;;9.25;;
59308;SDS011;48433;53.016;-2.260;2023-02-28T00:21:15;16.33;;;9.63;;
59308;SDS011;48433;53.016;-2.260;2023-02-28T00:23:44;15.13;;;8.85;;
59308;SDS011;48433;53.016;-2.260;2023-02-28T00:26:12;16.50;;;9.48;;
59308;SDS011;48433;53.016;-2.260;2023-02-28T00:28:44;13.80;;;9.05;;
59308;SDS011;48433;53.016;-2.260;2023-02-28T00:31:11;16.00;;;9.88;;
59308;SDS011;48433;53.016;-2.260;2023-02-28T00:33:39;17.30;;;10.20;;
59308;SDS011;48433;53.016;-2.260;2023-02-28T00:36:08;15.98;;;9.60;;
59308;SDS011;48433;53.016;-2.260;2023-02-28T00:38:37;15.20;;;8.30;;
59308;SDS011;48433;53.016;-2.260;2023-02-28T00:41:06;13.05;;;7.75;;
59308;SDS011;48433;53.016;-2.260;2023-02-28T00:43:35;12.60;;;7.25;;
59308;SDS011;48433;53.016;-2.260;2023-02-28T00:46:04;12.15;;;7.70;;
59308;SDS011;48433;53.016;-2.260;2023-02-28T00:48:32;13.50;;;7.90;;
59308;SDS011;48433;53.016;-2.260;2023-02-28T00:51:00;10.93;;;6.85;;
59308;SDS011;48433;53.016;-2.260;2023-02-28T00:53:28;12.43;;;7.68;;
59308;SDS011;48433;53.016;-2.260;2023-02-28T00:55:57;14.85;;;9.77;;
59308;SDS011;48433;53.016;-2.260;2023-02-28T00:58:25;18.13;;;11.27;;
59308;SDS011;48433;53.016;-2.260;2023-02-28T01:00:54;17.55;;;12.32;;
59308;SDS011;48433;53.016;-2.260;2023-02-28T01:03:22;18.42;;;11.80;;
59308;SDS011;48433;53.016;-2.260;2023-02-28T01:05:50;20.83;;;12.57;;
59308;SDS011;48433;53.016;-2.260;2023-02-28T01:08:20;19.30;;;12.55;;
59308;SDS011;48433;53.016;-2.260;2023-02-28T01:10:50;18.10;;;11.55;;
59308;SDS011;48433;53.016;-2.260;2023-02-28T01:13:18;17.42;;;10.48;;
59308;SDS011;48433;53.016;-2.260;2023-02-28T01:15:51;15.65;;;9.98;;
59308;SDS011;48433;53.016;-2.260;2023-02-28T01:18:21;15.45;;;10.63;;
59308;SDS011;48433;53.016;-2.260;2023-02-28T01:20:49;15.25;;;10.00;;
59308;SDS011;48433;53.016;-2.260;2023-02-28T01:23:19;13.80;;;9.43;;
59308;SDS011;48433;53.016;-2.260;2023-02-28T01:25:50;14.37;;;9.63;;
59308;SDS011;48433;53.016;-2.260;2023-02-28T01:28:18;14.18;;;9.65;;
59308;SDS011;48433;53.016;-2.260;2023-02-28T01:30:47;14.15;;;8.80;;
59308;SDS011;48433;53.016;-2.260;2023-02-28T01:33:16;14.52;;;9.02;;
59308;SDS011;48433;53.016;-2.260;2023-02-28T01:35:44;14.23;;;9.40;;
59308;SDS011;48433;53.016;-2.260;2023-02-28T01:38:11;14.43;;;9.30;;
59308;SDS011;48433;53.016;-2.260;2023-02-28T01:40:49;14.82;;;9.15;;
59308;SDS011;48433;53.016;-2.260;2023-02-28T01:46:12;15.20;;;8.68;;
59308;SDS011;48433;53.016;-2.260;2023-02-28T01:48:42;13.00;;;7.72;;
59308;SDS011;48433;53.016;-2.260;2023-02-28T01:51:13;13.18;;;8.55;;
59308;SDS011;48433;53.016;-2.260;2023-02-28T01:53:46;13.75;;;8.82;;
59308;SDS011;48433;53.016;-2.260;2023-02-28T01:56:17;15.23;;;9.77;;
59308;SDS011;48433;53.016;-2.260;2023-02-28T01:58:50;14.95;;;9.32;;
59308;SDS011;48433;53.016;-2.260;2023-02-28T02:01:20;16.05;;;9.77;;
59308;SDS011;48433;53.016;-2.260;2023-02-28T02:04:00;16.83;;;9.93;;
59308;SDS011;48433;53.016;-2.260;2023-02-28T02:06:37;15.13;;;9.15;;
59308;SDS011;48433;53.016;-2.260;2023-02-28T02:09:10;13.95;;;8.85;;
59308;SDS011;48433;53.016;-2.260;2023-02-28T02:11:39;14.27;;;9.07;;
59308;SDS011;48433;53.016;-2.260;2023-02-28T02:20:04;12.52;;;8.07;;
59308;SDS011;48433;53.016;-2.260;2023-02-28T02:37:45;8.95;;;4.85;;
59308;SDS011;48433;53.016;-2.260;2023-02-28T02:39:53;10.05;;;5.28;;
59308;SDS011;48433;53.016;-2.260;2023-02-28T02:42:50;8.07;;;4.60;;
59308;SDS011;48433;53.016;-2.260;2023-02-28T02:45:35;9.25;;;4.70;;
59308;SDS011;48433;53.016;-2.260;2023-02-28T02:48:25;10.80;;;5.15;;
59308;SDS011;48433;53.016;-2.260;2023-02-28T02:50:58;8.25;;;4.90;;
59308;SDS011;48433;53.016;-2.260;2023-02-28T02:56:01;7.88;;;4.57;;
59308;SDS011;48433;53.016;-2.260;2023-02-28T02:58:33;9.77;;;5.20;;
59308;SDS011;48433;53.016;-2.260;2023-02-28T03:01:11;11.82;;;5.53;;
59308;SDS011;48433;53.016;-2.260;2023-02-28T03:03:43;7.95;;;4.68;;
59308;SDS011;48433;53.016;-2.260;2023-02-28T03:06:12;9.68;;;5.40;;
59308;SDS011;48433;53.016;-2.260;2023-02-28T03:08:40;11.00;;;5.63;;
59308;SDS011;48433;53.016;-2.260;2023-02-28T03:11:11;9.95;;;5.15;;
59308;SDS011;48433;53.016;-2.260;2023-02-28T03:16:34;9.88;;;6.22;;
59308;SDS011;48433;53.016;-2.260;2023-02-28T03:21:51;10.15;;;5.47;;
59308;SDS011;48433;53.016;-2.260;2023-02-28T03:35:28;14.02;;;6.60;;
59308;SDS011;48433;53.016;-2.260;2023-02-28T03:38:06;13.20;;;8.05;;
59308;SDS011;48433;53.016;-2.260;2023-02-28T03:40:42;14.02;;;6.95;;
59308;SDS011;48433;53.016;-2.260;2023-02-28T03:43:18;10.48;;;6.25;;
59308;SDS011;48433;53.016;-2.260;2023-02-28T03:45:51;11.55;;;5.85;;
59308;SDS011;48433;53.016;-2.260;2023-02-28T03:48:27;10.38;;;5.57;;
59308;SDS011;48433;53.016;-2.260;2023-02-28T03:51:11;10.63;;;6.30;;
59308;SDS011;48433;53.016;-2.260;2023-02-28T03:53:45;11.18;;;5.65;;
59308;SDS011;48433;53.016;-2.260;2023-02-28T03:57:02;10.63;;;6.32;;
59308;SDS011;48433;53.016;-2.260;2023-02-28T03:59:28;9.95;;;5.18;;
59308;SDS011;48433;53.016;-2.260;2023-02-28T04:02:01;11.88;;;6.88;;
59308;SDS011;48433;53.016;-2.260;2023-02-28T04:04:29;10.50;;;5.47;;
59308;SDS011;48433;53.016;-2.260;2023-02-28T04:07:01;11.13;;;6.32;;
59308;SDS011;48433;53.016;-2.260;2023-02-28T04:09:31;12.77;;;7.00;;
59308;SDS011;48433;53.016;-2.260;2023-02-28T04:11:58;12.93;;;6.85;;
59308;SDS011;48433;53.016;-2.260;2023-02-28T04:14:27;11.02;;;6.18;;
59308;SDS011;48433;53.016;-2.260;2023-02-28T04:16:54;10.77;;;6.68;;
59308;SDS011;48433;53.016;-2.260;2023-02-28T04:19:22;14.88;;;7.15;;
59308;SDS011;48433;53.016;-2.260;2023-02-28T04:21:51;14.00;;;7.70;;
59308;SDS011;48433;53.016;-2.260;2023-02-28T04:24:23;12.00;;;7.55;;
59308;SDS011;48433;53.016;-2.260;2023-02-28T04:26:54;13.70;;;6.78;;
59308;SDS011;48433;53.016;-2.260;2023-02-28T04:29:24;13.93;;;7.32;;
59308;SDS011;48433;53.016;-2.260;2023-02-28T04:31:54;12.05;;;6.70;;
59308;SDS011;48433;53.016;-2.260;2023-02-28T04:34:28;12.13;;;7.50;;
59308;SDS011;48433;53.016;-2.260;2023-02-28T04:36:57;15.80;;;7.90;;
59308;SDS011;48433;53.016;-2.260;2023-02-28T04:39:39;18.55;;;9.85;;
59308;SDS011;48433;53.016;-2.260;2023-02-28T04:42:08;13.48;;;7.70;;
59308;SDS011;48433;53.016;-2.260;2023-02-28T04:44:35;15.15;;;8.25;;
59308;SDS011;48433;53.016;-2.260;2023-02-28T04:47:03;16.05;;;8.30;;
59308;SDS011;48433;53.016;-2.260;2023-02-28T04:49:31;14.73;;;8.13;;
59308;SDS011;48433;53.016;-2.260;2023-02-28T04:51:59;15.25;;;8.82;;
59308;SDS011;48433;53.016;-2.260;2023-02-28T04:54:27;14.35;;;8.52;;
59308;SDS011;48433;53.016;-2.260;2023-02-28T04:56:55;18.63;;;9.13;;
59308;SDS011;48433;53.016;-2.260;2023-02-28T04:59:23;16.33;;;9.32;;
59308;SDS011;48433;53.016;-2.260;2023-02-28T05:01:51;17.48;;;10.02;;
59308;SDS011;48433;53.016;-2.260;2023-02-28T05:04:18;18.33;;;10.95;;
59308;SDS011;48433;53.016;-2.260;2023-02-28T05:06:46;20.25;;;10.20;;
59308;SDS011;48433;53.016;-2.260;2023-02-28T05:09:14;17.67;;;10.32;;
59308;SDS011;48433;53.016;-2.260;2023-02-28T05:11:42;18.50;;;10.40;;
59308;SDS011;48433;53.016;-2.260;2023-02-28T05:14:10;24.20;;;14.35;;
59308;SDS011;48433;53.016;-2.260;2023-02-28T05:16:40;19.85;;;11.57;;
59308;SDS011;48433;53.016;-2.260;2023-02-28T05:19:07;21.88;;;12.10;;
59308;SDS011;48433;53.016;-2.260;2023-02-28T05:21:39;23.48;;;11.35;;
59308;SDS011;48433;53.016;-2.260;2023-02-28T05:24:11;21.45;;;12.57;;
59308;SDS011;48433;53.016;-2.260;2023-02-28T05:26:40;22.30;;;12.13;;
59308;SDS011;48433;53.016;-2.260;2023-02-28T05:29:09;22.48;;;13.43;;
59308;SDS011;48433;53.016;-2.260;2023-02-28T05:31:37;24.15;;;13.43;;
59308;SDS011;48433;53.016;-2.260;2023-02-28T05:34:04;22.15;;;13.77;;
59308;SDS011;48433;53.016;-2.260;2023-02-28T05:36:32;19.52;;;12.13;;
59308;SDS011;48433;53.016;-2.260;2023-02-28T05:39:00;21.20;;;12.65;;
59308;SDS011;48433;53.016;-2.260;2023-02-28T05:41:28;19.25;;;12.13;;
59308;SDS011;48433;53.016;-2.260;2023-02-28T05:43:57;21.38;;;12.85;;
59308;SDS011;48433;53.016;-2.260;2023-02-28T05:46:26;23.00;;;12.73;;
59308;SDS011;48433;53.016;-2.260;2023-02-28T05:48:54;19.35;;;11.73;;
59308;SDS011;48433;53.016;-2.260;2023-02-28T05:51:24;21.95;;;12.10;;
59308;SDS011;48433;53.016;-2.260;2023-02-28T05:53:52;24.50;;;14.10;;
59308;SDS011;48433;53.016;-2.260;2023-02-28T05:56:20;18.05;;;10.98;;
59308;SDS011;48433;53.016;-2.260;2023-02-28T05:58:48;17.67;;;10.77;;
59308;SDS011;48433;53.016;-2.260;2023-02-28T06:01:35;19.25;;;11.70;;
59308;SDS011;48433;53.016;-2.260;2023-02-28T06:04:06;18.52;;;10.75;;
59308;SDS011;48433;53.016;-2.260;2023-02-28T06:06:45;19.33;;;11.75;;
59308;SDS011;48433;53.016;-2.260;2023-02-28T06:09:14;18.48;;;11.68;;
59308;SDS011;48433;53.016;-2.260;2023-02-28T06:11:42;21.80;;;13.13;;
59308;SDS011;48433;53.016;-2.260;2023-02-28T06:14:13;23.52;;;12.73;;
59308;SDS011;48433;53.016;-2.260;2023-02-28T06:16:43;21.75;;;12.57;;
59308;SDS011;48433;53.016;-2.260;2023-02-28T06:19:11;26.45;;;13.02;;
59308;SDS011;48433;53.016;-2.260;2023-02-28T06:21:39;23.42;;;12.85;;
59308;SDS011;48433;53.016;-2.260;2023-02-28T06:24:07;21.02;;;11.80;;
59308;SDS011;48433;53.016;-2.260;2023-02-28T06:26:35;23.58;;;12.48;;
59308;SDS011;48433;53.016;-2.260;2023-02-28T06:29:02;21.90;;;11.60;;
59308;SDS011;48433;53.016;-2.260;2023-02-28T06:31:30;22.13;;;11.57;;
59308;SDS011;48433;53.016;-2.260;2023-02-28T06:33:59;20.70;;;10.68;;
59308;SDS011;48433;53.016;-2.260;2023-02-28T06:36:27;24.83;;;13.30;;
59308;SDS011;48433;53.016;-2.260;2023-02-28T06:38:55;27.92;;;16.58;;
59308;SDS011;48433;53.016;-2.260;2023-02-28T06:41:24;22.17;;;11.73;;
59308;SDS011;48433;53.016;-2.260;2023-02-28T06:43:52;18.50;;;10.75;;
59308;SDS011;48433;53.016;-2.260;2023-02-28T06:46:20;22.08;;;11.25;;
59308;SDS011;48433;53.016;-2.260;2023-02-28T06:48:48;25.30;;;11.15;;
59308;SDS011;48433;53.016;-2.260;2023-02-28T06:51:17;20.63;;;10.40;;
59308;SDS011;48433;53.016;-2.260;2023-02-28T06:53:47;24.52;;;10.90;;
59308;SDS011;48433;53.016;-2.260;2023-02-28T06:56:15;23.92;;;10.30;;
59308;SDS011;48433;53.016;-2.260;2023-02-28T06:58:48;24.17;;;10.10;;
59308;SDS011;48433;53.016;-2.260;2023-02-28T07:01:17;20.58;;;10.73;;
59308;SDS011;48433;53.016;-2.260;2023-02-28T07:03:46;19.08;;;10.43;;
59308;SDS011;48433;53.016;-2.260;2023-02-28T07:06:19;24.13;;;12.98;;
59308;SDS011;48433;53.016;-2.260;2023-02-28T07:08:50;19.65;;;10.82;;
59308;SDS011;48433;53.016;-2.260;2023-02-28T07:11:22;23.83;;;12.10;;
59308;SDS011;48433;53.016;-2.260;2023-02-28T07:13:56;20.92;;;11.07;;
59308;SDS011;48433;53.016;-2.260;2023-02-28T07:16:24;22.85;;;10.85;;
59308;SDS011;48433;53.016;-2.260;2023-02-28T07:18:53;16.70;;;8.75;;
59308;SDS011;48433;53.016;-2.260;2023-02-28T07:21:21;21.83;;;11.65;;
59308;SDS011;48433;53.016;-2.260;2023-02-28T07:23:49;22.13;;;12.35;;
59308;SDS011;48433;53.016;-2.260;2023-02-28T07:26:18;22.25;;;10.98;;
59308;SDS011;48433;53.016;-2.260;2023-02-28T07:28:47;22.77;;;12.65;;
59308;SDS011;48433;53.016;-2.260;2023-02-28T07:31:15;19.25;;;10.27;;
59308;SDS011;48433;53.016;-2.260;2023-02-28T07:33:44;19.40;;;11.75;;
59308;SDS011;48433;53.016;-2.260;2023-02-28T07:36:13;21.08;;;11.70;;
59308;SDS011;48433;53.016;-2.260;2023-02-28T07:38:43;22.17;;;12.23;;
59308;SDS011;48433;53.016;-2.260;2023-02-28T07:41:15;22.13;;;11.98;;
59308;SDS011;48433;53.016;-2.260;2023-02-28T07:43:44;20.83;;;11.85;;
59308;SDS011;48433;53.016;-2.260;2023-02-28T07:46:14;26.27;;;13.00;;
59308;SDS011;48433;53.016;-2.260;2023-02-28T07:48:43;17.93;;;10.50;;
59308;SDS011;48433;53.016;-2.260;2023-02-28T07:51:11;21.10;;;11.90;;
59308;SDS011;48433;53.016;-2.260;2023-02-28T07:53:39;18.20;;;11.00;;
59308;SDS011;48433;53.016;-2.260;2023-02-28T07:56:06;16.67;;;10.20;;
59308;SDS011;48433;53.016;-2.260;2023-02-28T07:58:34;16.38;;;10.45;;
59308;SDS011;48433;53.016;-2.260;2023-02-28T08:01:07;16.63;;;10.27;;
59308;SDS011;48433;53.016;-2.260;2023-02-28T08:03:37;17.25;;;10.77;;
59308;SDS011;48433;53.016;-2.260;2023-02-28T08:06:06;16.77;;;10.07;;
59308;SDS011;48433;53.016;-2.260;2023-02-28T08:08:35;17.63;;;9.88;;
59308;SDS011;48433;53.016;-2.260;2023-02-28T08:11:03;19.15;;;10.43;;
59308;SDS011;48433;53.016;-2.260;2023-02-28T08:13:31;14.60;;;8.10;;
59308;SDS011;48433;53.016;-2.260;2023-02-28T08:16:00;17.45;;;10.73;;
59308;SDS011;48433;53.016;-2.260;2023-02-28T08:18:28;18.67;;;9.93;;
59308;SDS011;48433;53.016;-2.260;2023-02-28T08:20:56;20.05;;;10.50;;
59308;SDS011;48433;53.016;-2.260;2023-02-28T08:23:24;16.63;;;10.00;;
59308;SDS011;48433;53.016;-2.260;2023-02-28T08:25:52;16.38;;;9.57;;
59308;SDS011;48433;53.016;-2.260;2023-02-28T08:28:21;14.32;;;9.00;;
59308;SDS011;48433;53.016;-2.260;2023-02-28T08:30:53;18.20;;;9.57;;
59308;SDS011;48433;53.016;-2.260;2023-02-28T08:33:22;14.65;;;8.30;;
59308;SDS011;48433;53.016;-2.260;2023-02-28T08:35:53;16.75;;;8.32;;
59308;SDS011;48433;53.016;-2.260;2023-02-28T08:38:24;12.27;;;8.02;;
59308;SDS011;48433;53.016;-2.260;2023-02-28T08:40:58;14.90;;;8.57;;
59308;SDS011;48433;53.016;-2.260;2023-02-28T08:43:33;15.25;;;9.30;;
59308;SDS011;48433;53.016;-2.260;2023-02-28T08:46:02;16.08;;;8.77;;
59308;SDS011;48433;53.016;-2.260;2023-02-28T08:48:31;13.40;;;8.20;;
59308;SDS011;48433;53.016;-2.260;2023-02-28T08:51:04;13.15;;;8.35;;
59308;SDS011;48433;53.016;-2.260;2023-02-28T08:53:35;12.82;;;8.23;;
59308;SDS011;48433;53.016;-2.260;2023-02-28T08:56:05;14.57;;;8.35;;
59308;SDS011;48433;53.016;-2.260;2023-02-28T08:58:35;11.40;;;7.50;;
59308;SDS011;48433;53.016;-2.260;2023-02-28T09:01:07;14.18;;;7.97;;
59308;SDS011;48433;53.016;-2.260;2023-02-28T09:03:40;14.90;;;8.10;;
59308;SDS011;48433;53.016;-2.260;2023-02-28T09:06:13;10.23;;;6.35;;
59308;SDS011;48433;53.016;-2.260;2023-02-28T09:08:42;13.90;;;6.95;;
59308;SDS011;48433;53.016;-2.260;2023-02-28T09:11:10;9.65;;;6.10;;
59308;SDS011;48433;53.016;-2.260;2023-02-28T09:13:38;8.93;;;5.82;;
59308;SDS011;48433;53.016;-2.260;2023-02-28T09:16:08;10.05;;;6.05;;
59308;SDS011;48433;53.016;-2.260;2023-02-28T09:18:38;10.90;;;5.80;;
59308;SDS011;48433;53.016;-2.260;2023-02-28T09:21:07;10.23;;;5.97;;
59308;SDS011;48433;53.016;-2.260;2023-02-28T09:23:38;8.38;;;5.40;;
59308;SDS011;48433;53.016;-2.260;2023-02-28T09:26:06;9.18;;;5.72;;
59308;SDS011;48433;53.016;-2.260;2023-02-28T09:28:34;9.68;;;5.85;;
59308;SDS011;48433;53.016;-2.260;2023-02-28T09:31:02;10.20;;;5.68;;
59308;SDS011;48433;53.016;-2.260;2023-02-28T09:33:31;10.60;;;6.30;;
59308;SDS011;48433;53.016;-2.260;2023-02-28T09:36:02;13.35;;;6.65;;
59308;SDS011;48433;53.016;-2.260;2023-02-28T09:38:30;11.32;;;6.13;;
59308;SDS011;48433;53.016;-2.260;2023-02-28T09:41:00;9.27;;;5.07;;
59308;SDS011;48433;53.016;-2.260;2023-02-28T09:43:34;10.52;;;5.15;;
59308;SDS011;48433;53.016;-2.260;2023-02-28T09:46:08;8.43;;;5.03;;
59308;SDS011;48433;53.016;-2.260;2023-02-28T09:48:48;11.20;;;5.07;;
59308;SDS011;48433;53.016;-2.260;2023-02-28T09:53:43;7.63;;;3.78;;
59308;SDS011;48433;53.016;-2.260;2023-02-28T09:56:24;6.80;;;3.63;;
59308;SDS011;48433;53.016;-2.260;2023-02-28T10:01:57;10.20;;;3.97;;
59308;SDS011;48433;53.016;-2.260;2023-02-28T10:10:00;9.07;;;2.97;;
59308;SDS011;48433;53.016;-2.260;2023-02-28T10:12:35;6.40;;;3.03;;
59308;SDS011;48433;53.016;-2.260;2023-02-28T10:15:09;9.48;;;3.20;;
59308;SDS011;48433;53.016;-2.260;2023-02-28T10:17:43;6.10;;;2.72;;
59308;SDS011;48433;53.016;-2.260;2023-02-28T10:20:26;7.68;;;2.70;;
59308;SDS011;48433;53.016;-2.260;2023-02-28T10:22:59;5.47;;;2.45;;
59308;SDS011;48433;53.016;-2.260;2023-02-28T10:25:35;8.88;;;3.88;;
59308;SDS011;48433;53.016;-2.260;2023-02-28T10:28:14;4.90;;;2.40;;
59308;SDS011;48433;53.016;-2.260;2023-02-28T10:30:48;5.63;;;2.45;;
59308;SDS011;48433;53.016;-2.260;2023-02-28T10:33:22;7.40;;;3.13;;
59308;SDS011;48433;53.016;-2.260;2023-02-28T10:35:53;8.43;;;2.92;;
59308;SDS011;48433;53.016;-2.260;2023-02-28T10:38:22;7.57;;;3.63;;
59308;SDS011;48433;53.016;-2.260;2023-02-28T10:40:52;9.00;;;2.95;;
59308;SDS011;48433;53.016;-2.260;2023-02-28T10:43:34;6.03;;;2.90;;
59308;SDS011;48433;53.016;-2.260;2023-02-28T10:48:47;5.63;;;2.55;;
59308;SDS011;48433;53.016;-2.260;2023-02-28T10:51:27;4.78;;;2.20;;
59308;SDS011;48433;53.016;-2.260;2023-02-28T10:54:03;7.50;;;2.55;;
59308;SDS011;48433;53.016;-2.260;2023-02-28T10:56:32;6.90;;;2.72;;
59308;SDS011;48433;53.016;-2.260;2023-02-28T11:01:57;7.40;;;2.42;;
59308;SDS011;48433;53.016;-2.260;2023-02-28T11:06:57;6.03;;;2.60;;
59308;SDS011;48433;53.016;-2.260;2023-02-28T11:12:02;5.40;;;1.75;;
59308;SDS011;48433;53.016;-2.260;2023-02-28T11:14:35;5.07;;;2.13;;
59308;SDS011;48433;53.016;-2.260;2023-02-28T11:17:19;6.30;;;1.95;;
59308;SDS011;48433;53.016;-2.260;2023-02-28T11:19:56;5.60;;;1.75;;
59308;SDS011;48433;53.016;-2.260;2023-02-28T11:22:35;3.85;;;1.77;;
59308;SDS011;48433;53.016;-2.260;2023-02-28T11:25:16;5.15;;;1.60;;
59308;SDS011;48433;53.016;-2.260;2023-02-28T11:27:58;3.92;;;1.52;;
59308;SDS011;48433;53.016;-2.260;2023-02-28T11:33:18;3.65;;;1.50;;
59308;SDS011;48433;53.016;-2.260;2023-02-28T11:35:49;5.15;;;1.55;;
59308;SDS011;48433;53.016;-2.260;2023-02-28T11:38:18;4.07;;;1.40;;
59308;SDS011;48433;53.016;-2.260;2023-02-28T11:46:07;4.55;;;1.42;;
59308;SDS011;48433;53.016;-2.260;2023-02-28T11:51:32;3.28;;;1.30;;
59308;SDS011;48433;53.016;-2.260;2023-02-28T11:56:49;4.95;;;1.63;;
59308;SDS011;48433;53.016;-2.260;2023-02-28T11:59:35;7.38;;;1.60;;
59308;SDS011;48433;53.016;-2.260;2023-02-28T12:02:20;4.72;;;1.70;;
59308;SDS011;48433;53.016;-2.260;2023-02-28T12:10:35;4.63;;;1.50;;
59308;SDS011;48433;53.016;-2.260;2023-02-28T12:13:24;12.57;;;3.38;;
59308;SDS011;48433;53.016;-2.260;2023-02-28T12:16:04;7.07;;;1.85;;
59308;SDS011;48433;53.016;-2.260;2023-02-28T12:21:38;3.42;;;1.23;;
59308;SDS011;48433;53.016;-2.260;2023-02-28T12:26:47;6.55;;;1.50;;
59308;SDS011;48433;53.016;-2.260;2023-02-28T12:31:59;3.90;;;1.50;;
59308;SDS011;48433;53.016;-2.260;2023-02-28T12:34:33;7.35;;;1.90;;
59308;SDS011;48433;53.016;-2.260;2023-02-28T12:37:21;3.83;;;1.65;;
59308;SDS011;48433;53.016;-2.260;2023-02-28T12:40:01;13.18;;;3.03;;
59308;SDS011;48433;53.016;-2.260;2023-02-28T12:42:56;5.88;;;1.70;;
59308;SDS011;48433;53.016;-2.260;2023-02-28T12:45:41;6.70;;;1.90;;
59308;SDS011;48433;53.016;-2.260;2023-02-28T12:48:21;6.40;;;1.92;;
59308;SDS011;48433;53.016;-2.260;2023-02-28T12:51:06;2.72;;;1.42;;
59308;SDS011;48433;53.016;-2.260;2023-02-28T12:56:37;18.80;;;2.58;;
59308;SDS011;48433;53.016;-2.260;2023-02-28T12:59:14;5.00;;;1.40;;
59308;SDS011;48433;53.016;-2.260;2023-02-28T13:04:56;6.03;;;1.42;;
59308;SDS011;48433;53.016;-2.260;2023-02-28T13:10:47;8.10;;;2.08;;
59308;SDS011;48433;53.016;-2.260;2023-02-28T13:13:21;4.78;;;1.40;;
59308;SDS011;48433;53.016;-2.260;2023-02-28T13:16:02;5.43;;;1.50;;
59308;SDS011;48433;53.016;-2.260;2023-02-28T13:21:07;15.43;;;3.03;;
59308;SDS011;48433;53.016;-2.260;2023-02-28T13:23:40;4.35;;;1.60;;
59308;SDS011;48433;53.016;-2.260;2023-02-28T13:34:49;7.68;;;2.42;;
59308;SDS011;48433;53.016;-2.260;2023-02-28T13:37:41;9.13;;;3.72;;
59308;SDS011;48433;53.016;-2.260;2023-02-28T13:47:51;7.78;;;1.83;;
59308;SDS011;48433;53.016;-2.260;2023-02-28T13:55:43;8.90;;;1.85;;
59308;SDS011;48433;53.016;-2.260;2023-02-28T13:58:59;5.80;;;1.80;;
59308;SDS011;48433;53.016;-2.260;2023-02-28T14:01:40;9.75;;;1.98;;
59308;SDS011;48433;53.016;-2.260;2023-02-28T14:07:01;9.60;;;1.90;;
59308;SDS011;48433;53.016;-2.260;2023-02-28T14:20:47;8.45;;;1.77;;
59308;SDS011;48433;53.016;-2.260;2023-02-28T14:23:30;10.40;;;2.30;;
59308;SDS011;48433;53.016;-2.260;2023-02-28T14:28:56;7.00;;;2.25;;
59308;SDS011;48433;53.016;-2.260;2023-02-28T14:36:58;7.75;;;2.00;;
59308;SDS011;48433;53.016;-2.260;2023-02-28T14:39:28;6.13;;;1.90;;
59308;SDS011;48433;53.016;-2.260;2023-02-28T14:41:59;4.30;;;2.00;;
59308;SDS011;48433;53.016;-2.260;2023-02-28T14:44:31;5.55;;;2.20;;
59308;SDS011;48433;53.016;-2.260;2023-02-28T14:47:00;6.30;;;2.00;;
59308;SDS011;48433;53.016;-2.260;2023-02-28T14:49:36;8.60;;;2.80;;
59308;SDS011;48433;53.016;-2.260;2023-02-28T14:54:37;8.10;;;1.90;;
59308;SDS011;48433;53.016;-2.260;2023-02-28T14:57:05;4.15;;;1.60;;
59308;SDS011;48433;53.016;-2.260;2023-02-28T14:59:56;3.58;;;1.30;;
59308;SDS011;48433;53.016;-2.260;2023-02-28T15:02:38;7.35;;;2.35;;
59308;SDS011;48433;53.016;-2.260;2023-02-28T15:07:46;5.75;;;1.77;;
59308;SDS011;48433;53.016;-2.260;2023-02-28T15:10:25;2.80;;;1.30;;
59308;SDS011;48433;53.016;-2.260;2023-02-28T15:12:55;6.50;;;1.90;;
59308;SDS011;48433;53.016;-2.260;2023-02-28T15:21:11;15.13;;;2.90;;
59308;SDS011;48433;53.016;-2.260;2023-02-28T15:24:30;6.53;;;1.85;;
59308;SDS011;48433;53.016;-2.260;2023-02-28T15:26:55;4.78;;;1.60;;
59308;SDS011;48433;53.016;-2.260;2023-02-28T15:29:26;12.23;;;2.58;;
59308;SDS011;48433;53.016;-2.260;2023-02-28T15:32:00;6.07;;;2.05;;
59308;SDS011;48433;53.016;-2.260;2023-02-28T15:34:35;5.25;;;1.90;;
59308;SDS011;48433;53.016;-2.260;2023-02-28T15:40:13;3.45;;;1.50;;
59308;SDS011;48433;53.016;-2.260;2023-02-28T15:43:04;5.35;;;1.55;;
59308;SDS011;48433;53.016;-2.260;2023-02-28T15:45:47;7.55;;;1.92;;
59308;SDS011;48433;53.016;-2.260;2023-02-28T15:48:37;14.25;;;2.60;;
59308;SDS011;48433;53.016;-2.260;2023-02-28T15:53:43;7.25;;;2.20;;
59308;SDS011;48433;53.016;-2.260;2023-02-28T15:56:35;13.85;;;2.42;;
59308;SDS011;48433;53.016;-2.260;2023-02-28T15:59:03;7.30;;;1.65;;
59308;SDS011;48433;53.016;-2.260;2023-02-28T16:04:04;5.57;;;1.77;;
59308;SDS011;48433;53.016;-2.260;2023-02-28T16:06:43;6.57;;;1.77;;
59308;SDS011;48433;53.016;-2.260;2023-02-28T16:09:26;5.05;;;1.50;;
59308;SDS011;48433;53.016;-2.260;2023-02-28T16:11:55;8.15;;;1.67;;
59308;SDS011;48433;53.016;-2.260;2023-02-28T16:14:26;4.25;;;1.65;;
59308;SDS011;48433;53.016;-2.260;2023-02-28T16:17:03;5.88;;;1.45;;
59308;SDS011;48433;53.016;-2.260;2023-02-28T16:19:32;3.92;;;1.58;;
59308;SDS011;48433;53.016;-2.260;2023-02-28T16:22:00;7.03;;;1.65;;
59308;SDS011;48433;53.016;-2.260;2023-02-28T16:24:28;3.40;;;1.42;;
59308;SDS011;48433;53.016;-2.260;2023-02-28T16:26:56;10.23;;;2.05;;
59308;SDS011;48433;53.016;-2.260;2023-02-28T16:29:28;5.53;;;1.70;;
59308;SDS011;48433;53.016;-2.260;2023-02-28T16:31:59;3.65;;;1.65;;
59308;SDS011;48433;53.016;-2.260;2023-02-28T16:34:28;8.55;;;2.17;;
59308;SDS011;48433;53.016;-2.260;2023-02-28T16:36:56;6.43;;;2.10;;
59308;SDS011;48433;53.016;-2.260;2023-02-28T16:39:23;5.97;;;2.45;;
59308;SDS011;48433;53.016;-2.260;2023-02-28T16:41:51;9.85;;;2.38;;
59308;SDS011;48433;53.016;-2.260;2023-02-28T16:44:29;4.57;;;1.92;;
59308;SDS011;48433;53.016;-2.260;2023-02-28T16:47:01;6.00;;;2.00;;
59308;SDS011;48433;53.016;-2.260;2023-02-28T16:49:30;7.32;;;1.48;;
59308;SDS011;48433;53.016;-2.260;2023-02-28T16:51:58;7.07;;;1.77;;
59308;SDS011;48433;53.016;-2.260;2023-02-28T16:54:26;8.45;;;2.00;;
59308;SDS011;48433;53.016;-2.260;2023-02-28T16:56:54;5.53;;;1.65;;
59308;SDS011;48433;53.016;-2.260;2023-02-28T16:59:23;8.05;;;2.33;;
59308;SDS011;48433;53.016;-2.260;2023-02-28T17:01:53;7.93;;;2.05;;
59308;SDS011;48433;53.016;-2.260;2023-02-28T17:04:26;23.10;;;3.05;;
59308;SDS011;48433;53.016;-2.260;2023-02-28T17:06:54;4.18;;;1.75;;
59308;SDS011;48433;53.016;-2.260;2023-02-28T17:09:23;10.90;;;2.15;;
59308;SDS011;48433;53.016;-2.260;2023-02-28T17:12:07;5.63;;;1.60;;
59308;SDS011;48433;53.016;-2.260;2023-02-28T17:14:35;9.13;;;2.30;;
59308;SDS011;48433;53.016;-2.260;2023-02-28T17:17:04;4.45;;;1.63;;
59308;SDS011;48433;53.016;-2.260;2023-02-28T17:19:32;4.85;;;1.63;;
59308;SDS011;48433;53.016;-2.260;2023-02-28T17:22:03;6.18;;;2.38;;
59308;SDS011;48433;53.016;-2.260;2023-02-28T17:24:30;7.47;;;2.03;;
59308;SDS011;48433;53.016;-2.260;2023-02-28T17:26:58;8.77;;;2.35;;
59308;SDS011;48433;53.016;-2.260;2023-02-28T17:29:26;18.77;;;6.15;;
59308;SDS011;48433;53.016;-2.260;2023-02-28T17:31:53;15.13;;;5.15;;
59308;SDS011;48433;53.016;-2.260;2023-02-28T17:34:22;8.80;;;3.53;;
59308;SDS011;48433;53.016;-2.260;2023-02-28T17:36:50;6.95;;;2.75;;
59308;SDS011;48433;53.016;-2.260;2023-02-28T17:39:19;7.30;;;1.80;;